Time;durP1;ratioP1;P1;durP2;ratioP2;P2;SDS_P1;SDS_P2;PMS_P1;PMS_P2;Temp;Humidity;BMP_temperature;BMP_pressure;BME280_temperature;BME280_humidity;BME280_pressure;Samples;Min_cycle;Max_cycle;Signal;HPM_P1;HPM_P2
2023/07/15 00:00:21;;;;;;;6.10;3.63;;;;;;;;;;5053733;28;20452;-45
2023/07/15 00:02:50;;;;;;;5.70;4.00;;;;;;;;;;5052975;28;20855;-45
2023/07/15 00:05:20;;;;;;;7.53;4.90;;;22.90;61.70;;;;;;5054316;28;20433;-46
2023/07/15 00:07:48;;;;;;;6.73;4.77;;;;;;;;;;5054448;28;20463;-45
2023/07/15 00:10:15;;;;;;;4.87;3.93;;;;;;;;;;5054197;28;20836;-46
2023/07/15 00:12:42;;;;;;;5.10;3.83;;;22.90;62.10;;;;;;5054321;28;20833;-44
2023/07/15 00:15:11;;;;;;;6.47;3.90;;;;;;;;;;5053895;28;20485;-46
2023/07/15 00:17:39;;;;;;;5.07;3.87;;;;;;;;;;5054528;28;20466;-44
2023/07/15 00:20:08;;;;;;;5.20;3.90;;;;;;;;;;5054870;28;20442;-45
2023/07/15 00:22:35;;;;;;;4.87;3.87;;;22.90;62.50;;;;;;5055271;28;20455;-45
2023/07/15 00:25:04;;;;;;;5.63;4.10;;;22.90;62.60;;;;;;5054908;28;20552;-45
2023/07/15 00:27:32;;;;;;;5.23;3.90;;;;;;;;;;5054580;28;20479;-45
2023/07/15 00:29:59;;;;;;;4.60;3.63;;;;;;;;;;5053979;28;20443;-45
2023/07/15 00:32:30;;;;;;;5.17;4.50;;;;;;;;;;5052831;28;20489;-45
2023/07/15 00:34:57;;;;;;;5.00;3.97;;;;;;;;;;5054552;28;20570;-46
2023/07/15 00:37:24;;;;;;;6.30;4.53;;;22.90;63.30;;;;;;5054869;28;20424;-44
2023/07/15 00:39:51;;;;;;;5.53;3.53;;;;;;;;;;5054007;28;20850;-44
2023/07/15 00:42:21;;;;;;;6.20;4.90;;;;;;;;;;5050900;28;20463;-46
2023/07/15 00:44:47;;;;;;;6.53;4.07;;;22.90;63.80;;;;;;5048188;28;20429;-46
2023/07/15 00:47:32;;;;;;;8.33;4.00;;;22.90;64.10;;;;;;5051736;28;20449;-45
2023/07/15 00:49:59;;;;;;;5.50;3.90;;;;;;;;;;5050511;28;21051;-46
2023/07/15 00:52:26;;;;;;;4.70;3.77;;;22.80;64.50;;;;;;5051351;28;20459;-45
2023/07/15 00:54:55;;;;;;;4.83;3.20;;;22.80;64.60;;;;;;5050477;28;20803;-44
2023/07/15 00:57:25;;;;;;;7.00;4.63;;;22.70;64.70;;;;;;5052224;28;20451;-46
2023/07/15 00:59:58;;;;;;;5.50;4.10;;;22.70;65.00;;;;;;5050440;28;20451;-45
2023/07/15 01:02:26;;;;;;;6.80;3.47;;;;;;;;;;5055996;28;20822;-45
2023/07/15 01:04:53;;;;;;;5.13;3.60;;;;;;;;;;5056317;28;20449;-46
2023/07/15 01:07:22;;;;;;;8.13;4.50;;;;;;;;;;5055675;28;20961;-45
2023/07/15 01:09:50;;;;;;;5.03;4.33;;;22.50;66.00;;;;;;5055715;28;20435;-46
2023/07/15 01:12:16;;;;;;;6.30;4.13;;;22.50;66.20;;;;;;5056399;28;20801;-45
2023/07/15 01:14:45;;;;;;;6.07;4.27;;;;;;;;;;5054607;28;20479;-44
2023/07/15 01:17:12;;;;;;;5.30;4.47;;;;;;;;;;5055693;28;20807;-44
2023/07/15 01:19:40;;;;;;;6.90;4.00;;;;;;;;;;5057040;28;20448;-44
2023/07/15 01:22:07;;;;;;;5.50;4.07;;;22.30;67.10;;;;;;5057261;28;20488;-45
2023/07/15 01:24:38;;;;;;;5.60;3.73;;;;;;;;;;5056967;28;20450;-44
2023/07/15 01:27:08;;;;;;;9.80;4.10;;;22.30;67.50;;;;;;5057331;28;20469;-44
2023/07/15 01:29:35;;;;;;;5.70;3.97;;;;;;;;;;5056158;28;20451;-44
2023/07/15 01:32:02;;;;;;;4.27;3.87;;;;;;;;;;5055715;28;20583;-46
2023/07/15 01:34:30;;;;;;;7.10;4.60;;;22.20;67.90;;;;;;5054265;28;20478;-45
2023/07/15 01:36:57;;;;;;;4.53;3.80;;;22.10;68.10;;;;;;5055742;28;20442;-45
2023/07/15 01:39:25;;;;;;;6.90;4.13;;;;;;;;;;5055082;28;20431;-44
2023/07/15 01:41:55;;;;;;;6.30;5.30;;;22.00;68.30;;;;;;5054024;28;20508;-45
2023/07/15 01:44:22;;;;;;;6.10;3.90;;;22.00;68.60;;;;;;5054046;28;20807;-44
2023/07/15 01:46:50;;;;;;;7.00;4.23;;;22.00;68.70;;;;;;5055032;28;20476;-45
2023/07/15 01:49:17;;;;;;;5.93;4.33;;;;;;;;;;5053267;28;20446;-46
2023/07/15 01:51:43;;;;;;;4.93;4.20;;;21.90;69.10;;;;;;5054833;28;20922;-45
2023/07/15 01:54:10;;;;;;;7.27;4.23;;;21.90;69.30;;;;;;5054886;28;20993;-46
2023/07/15 01:56:37;;;;;;;5.57;4.50;;;;;;;;;;5055016;28;20544;-45
2023/07/15 01:59:05;;;;;;;6.13;4.20;;;21.80;69.70;;;;;;5055453;28;20510;-45
2023/07/15 02:01:32;;;;;;;4.73;3.90;;;21.80;69.80;;;;;;5054399;28;20492;-46
2023/07/15 02:03:59;;;;;;;5.30;4.20;;;;;;;;;;5056023;28;20864;-46
2023/07/15 02:06:26;;;;;;;7.07;3.80;;;21.80;70.30;;;;;;5055048;28;20439;-45
2023/07/15 02:08:53;;;;;;;5.07;3.80;;;;;;;;;;5053059;28;20977;-44
2023/07/15 02:11:21;;;;;;;7.93;4.30;;;;;;;;;;5053380;28;20816;-45
2023/07/15 02:13:50;;;;;;;5.33;4.40;;;21.70;70.90;;;;;;5053051;28;20470;-44
2023/07/15 02:16:19;;;;;;;5.20;4.70;;;21.70;71.00;;;;;;5054204;28;20470;-44
2023/07/15 02:18:47;;;;;;;8.20;4.07;;;;;;;;;;5052726;28;20804;-45
2023/07/15 02:21:14;;;;;;;5.10;4.33;;;21.60;71.20;;;;;;5054460;28;20452;-44
2023/07/15 02:23:42;;;;;;;9.83;4.00;;;;;;;;;;5054291;28;20488;-46
2023/07/15 02:26:08;;;;;;;8.17;4.33;;;21.50;71.70;;;;;;5054329;28;20926;-44
2023/07/15 02:28:35;;;;;;;7.80;4.60;;;;;;;;;;5053673;28;20435;-44
2023/07/15 02:31:02;;;;;;;6.70;4.77;;;21.50;72.00;;;;;;5054248;28;20435;-45
2023/07/15 02:33:31;;;;;;;5.30;4.30;;;;;;;;;;5053756;28;20466;-45
2023/07/15 02:35:58;;;;;;;8.63;4.67;;;;;;;;;;5052591;28;21040;-44
2023/07/15 02:38:24;;;;;;;8.90;4.53;;;21.40;72.70;;;;;;5052413;28;21003;-44
2023/07/15 02:40:52;;;;;;;10.80;4.80;;;;;;;;;;5054256;28;20460;-45
2023/07/15 02:43:19;;;;;;;6.37;4.63;;;21.40;73.10;;;;;;5053775;28;20522;-45
2023/07/15 02:45:48;;;;;;;9.63;4.37;;;21.30;73.10;;;;;;5053814;28;20451;-46
2023/07/15 02:48:14;;;;;;;5.40;4.40;;;21.30;73.20;;;;;;5052100;28;20446;-46
2023/07/15 02:50:42;;;;;;;8.07;4.70;;;21.30;73.40;;;;;;5053565;28;20736;-45
2023/07/15 02:53:09;;;;;;;4.83;4.40;;;;;;;;;;5053566;28;20456;-45
2023/07/15 02:55:37;;;;;;;4.60;4.20;;;;;;;;;;5052119;28;20473;-46
2023/07/15 02:58:05;;;;;;;4.77;4.20;;;21.30;73.60;;;;;;5053368;28;20478;-47
2023/07/15 03:00:31;;;;;;;13.80;5.30;;;21.20;73.70;;;;;;5053433;28;20428;-45
2023/07/15 03:03:00;;;;;;;6.27;4.40;;;21.20;73.80;;;;;;5052216;28;20906;-45
2023/07/15 03:05:27;;;;;;;6.13;4.80;;;;;;;;;;5053451;28;20554;-47
2023/07/15 03:07:55;;;;;;;9.90;4.80;;;;;;;;;;5053602;28;20537;-45
2023/07/15 03:10:22;;;;;;;6.40;5.00;;;21.20;74.20;;;;;;5051729;28;20574;-44
2023/07/15 03:12:49;;;;;;;6.23;4.67;;;;;;;;;;5051715;28;20475;-47
2023/07/15 03:15:16;;;;;;;9.13;5.40;;;21.10;74.40;;;;;;5052035;28;20842;-45
2023/07/15 03:17:43;;;;;;;6.03;5.03;;;;;;;;;;5053160;28;20436;-45
2023/07/15 03:20:19;;;;;;;7.93;4.40;;;21.10;74.60;;;;;;5053109;28;20435;-45
2023/07/15 03:22:46;;;;;;;4.87;4.37;;;21.10;74.70;;;;;;5052554;28;20934;-45
2023/07/15 03:25:14;;;;;;;6.10;4.43;;;21.10;74.90;;;;;;5051665;28;20459;-45
2023/07/15 03:27:41;;;;;;;6.80;4.77;;;;;;;;;;5052888;28;20464;-47
2023/07/15 03:30:09;;;;;;;9.07;4.63;;;;;;;;;;5052591;28;20459;-46
2023/07/15 03:32:36;;;;;;;5.77;4.47;;;21.10;75.00;;;;;;5053940;28;20464;-46
2023/07/15 03:35:04;;;;;;;6.50;4.63;;;;;;;;;;5051591;28;20476;-46
2023/07/15 03:37:31;;;;;;;5.60;4.83;;;21.10;75.20;;;;;;5051646;28;20484;-46
2023/07/15 03:39:57;;;;;;;5.23;4.70;;;21.20;75.30;;;;;;5052444;28;20775;-46
2023/07/15 03:42:26;;;;;;;5.90;4.53;;;21.20;75.40;;;;;;5052523;28;20823;-44
2023/07/15 03:44:52;;;;;;;6.70;4.93;;;21.20;75.20;;;;;;5052470;28;20442;-45
2023/07/15 03:47:19;;;;;;;4.90;4.50;;;;;;;;;;5052427;28;20577;-47
2023/07/15 03:49:46;;;;;;;9.17;5.20;;;21.20;75.40;;;;;;5052094;28;20535;-46
2023/07/15 03:52:13;;;;;;;8.87;4.43;;;;;;;;;;5052626;28;20909;-45
2023/07/15 03:54:40;;;;;;;6.97;4.00;;;;;;;;;;5050803;28;20456;-46
2023/07/15 03:57:07;;;;;;;4.97;4.37;;;;;;;;;;5052281;28;20546;-45
2023/07/15 03:59:36;;;;;;;4.70;4.30;;;;;;;;;;5051785;28;20452;-46
2023/07/15 04:02:02;;;;;;;6.07;5.13;;;21.30;75.80;;;;;;5052212;28;20449;-45
2023/07/15 04:04:30;;;;;;;5.47;4.97;;;;;;;;;;5052238;28;20449;-44
2023/07/15 04:06:57;;;;;;;7.40;4.80;;;;;;;;;;5052226;28;20463;-45
2023/07/15 04:09:24;;;;;;;6.90;5.17;;;;;;;;;;5051934;28;20433;-44
2023/07/15 04:11:51;;;;;;;6.73;4.80;;;21.50;75.80;;;;;;5052059;28;20443;-44
2023/07/15 04:14:18;;;;;;;5.50;5.00;;;;;;;;;;5050913;28;20445;-45
2023/07/15 04:16:46;;;;;;;5.63;4.60;;;;;;;;;;5052135;28;20515;-46
2023/07/15 04:19:13;;;;;;;16.57;5.07;;;;;;;;;;5051711;28;20442;-46
2023/07/15 04:21:40;;;;;;;5.73;5.10;;;;;;;;;;5051914;28;20520;-45
2023/07/15 04:24:07;;;;;;;6.07;5.03;;;22.10;75.10;;;;;;5051923;28;20529;-45
2023/07/15 04:26:33;;;;;;;6.70;4.93;;;22.30;74.90;;;;;;5051788;28;20430;-46
2023/07/15 04:29:00;;;;;;;7.40;4.50;;;;;;;;;;5051477;28;20437;-44
2023/07/15 04:31:27;;;;;;;8.50;5.20;;;;;;;;;;5051579;28;20484;-45
2023/07/15 04:33:55;;;;;;;7.37;4.67;;;;;;;;;;5051268;28;20485;-45
2023/07/15 04:36:23;;;;;;;8.20;5.13;;;;;;;;;;5050988;28;20485;-44
2023/07/15 04:38:50;;;;;;;7.33;5.00;;;;;;;;;;5051512;28;20436;-45
2023/07/15 04:41:17;;;;;;;6.83;4.87;;;;;;;;;;5051596;28;20439;-46
2023/07/15 04:43:44;;;;;;;8.80;5.03;;;23.10;73.20;;;;;;5051473;28;20461;-45
2023/07/15 04:46:11;;;;;;;8.20;5.50;;;23.20;72.90;;;;;;5051828;28;20440;-46
2023/07/15 04:48:39;;;;;;;5.80;5.13;;;23.30;72.70;;;;;;5051016;28;20431;-45
2023/07/15 04:51:07;;;;;;;5.43;4.33;;;23.30;72.60;;;;;;5051488;28;20433;-44
2023/07/15 04:53:34;;;;;;;6.30;5.03;;;23.40;72.50;;;;;;5051484;28;20878;-45
2023/07/15 04:56:02;;;;;;;6.63;5.00;;;;;;;;;;5051394;28;20499;-45
2023/07/15 04:58:29;;;;;;;7.40;4.70;;;;;;;;;;5051028;28;20469;-45
2023/07/15 05:00:56;;;;;;;5.90;5.17;;;23.50;72.10;;;;;;5051437;28;20542;-46
2023/07/15 05:03:22;;;;;;;6.30;4.83;;;23.50;72.00;;;;;;5051326;28;20451;-45
2023/07/15 05:05:49;;;;;;;4.93;4.43;;;;;;;;;;5051475;28;20472;-47
2023/07/15 05:08:20;;;;;;;5.10;4.60;;;23.00;71.30;;;;;;5050921;28;20524;-46
2023/07/15 05:10:48;;;;;;;5.90;4.77;;;;;;;;;;5051440;28;20939;-45
2023/07/15 05:13:15;;;;;;;5.70;4.43;;;;;;;;;;5051092;28;20452;-46
2023/07/15 05:15:43;;;;;;;6.27;4.97;;;23.70;71.90;;;;;;5051135;28;20512;-45
2023/07/15 05:18:10;;;;;;;5.43;4.57;;;;;;;;;;5051116;28;20468;-45
2023/07/15 05:20:38;;;;;;;7.63;5.20;;;;;;;;;;5051222;28;20457;-45
2023/07/15 05:23:05;;;;;;;5.70;4.80;;;23.90;71.80;;;;;;5051198;28;20452;-46
2023/07/15 05:25:34;;;;;;;5.03;4.50;;;;;;;;;;5051804;28;20436;-46
2023/07/15 05:28:00;;;;;;;6.03;4.57;;;24.10;71.80;;;;;;5051128;28;20448;-46
2023/07/15 05:30:27;;;;;;;7.00;4.57;;;;;;;;;;5050793;28;20433;-45
2023/07/15 05:32:54;;;;;;;5.57;4.17;;;24.20;71.50;;;;;;5050836;28;20554;-47
2023/07/15 05:35:20;;;;;;;6.50;5.37;;;24.20;71.40;;;;;;5050915;28;20481;-45
2023/07/15 05:37:47;;;;;;;5.83;4.33;;;24.30;71.50;;;;;;5051233;28;20453;-44
2023/07/15 05:40:14;;;;;;;5.20;4.70;;;;;;;;;;5051023;28;20460;-47
2023/07/15 05:42:43;;;;;;;6.37;4.13;;;24.50;71.40;;;;;;5050729;28;20765;-45
2023/07/15 05:45:10;;;;;;;6.30;4.73;;;;;;;;;;5050828;28;20446;-45
2023/07/15 05:47:37;;;;;;;11.20;5.20;;;;;;;;;;5054042;28;20506;-45
2023/07/15 05:50:04;;;;;;;9.83;4.67;;;;;;;;;;5054503;28;20779;-44
2023/07/15 05:52:31;;;;;;;5.90;4.53;;;24.70;70.90;;;;;;5054617;28;20462;-46
2023/07/15 05:54:58;;;;;;;5.73;4.23;;;24.80;70.60;;;;;;5054540;28;20768;-45
2023/07/15 05:57:24;;;;;;;7.50;5.00;;;;;;;;;;5054335;28;20480;-48
2023/07/15 05:59:53;;;;;;;5.60;3.90;;;24.90;70.50;;;;;;5054206;28;20437;-46
2023/07/15 06:02:19;;;;;;;5.73;4.50;;;24.90;70.30;;;;;;5054331;28;20460;-46
2023/07/15 06:04:46;;;;;;;6.80;4.90;;;;;;;;;;5054412;28;20437;-46
2023/07/15 06:07:13;;;;;;;5.47;4.23;;;;;;;;;;5054368;28;20438;-47
2023/07/15 06:09:40;;;;;;;6.03;4.40;;;25.10;69.70;;;;;;5054471;28;20461;-46
2023/07/15 06:12:07;;;;;;;6.87;4.60;;;;;;;;;;5054258;28;20454;-48
2023/07/15 06:14:34;;;;;;;9.27;4.50;;;;;;;;;;5054169;28;20453;-44
2023/07/15 06:17:02;;;;;;;7.07;4.60;;;;;;;;;;5054021;28;20485;-46
2023/07/15 06:19:29;;;;;;;5.43;4.50;;;;;;;;;;5053939;28;20445;-46
2023/07/15 06:21:56;;;;;;;6.87;4.60;;;;;;;;;;5054061;28;20464;-45
2023/07/15 06:24:23;;;;;;;7.83;4.87;;;;;;;;;;5053917;28;20438;-47
2023/07/15 06:26:50;;;;;;;6.47;4.17;;;25.60;67.60;;;;;;5053834;28;20946;-45
2023/07/15 06:29:16;;;;;;;5.00;4.17;;;25.70;67.60;;;;;;5052557;28;20446;-44
2023/07/15 06:31:44;;;;;;;6.93;4.30;;;;;;;;;;5054456;28;20438;-45
2023/07/15 06:34:12;;;;;;;9.27;4.37;;;25.80;67.20;;;;;;5054331;28;20426;-47
2023/07/15 06:36:39;;;;;;;7.37;3.97;;;;;;;;;;5053928;28;20470;-49
2023/07/15 06:39:06;;;;;;;5.07;4.37;;;;;;;;;;5054121;28;20781;-48
2023/07/15 06:41:33;;;;;;;7.87;3.90;;;;;;;;;;5054519;28;20446;-47
2023/07/15 06:44:01;;;;;;;7.50;4.10;;;;;;;;;;5052756;28;20462;-47
2023/07/15 06:46:28;;;;;;;10.27;4.40;;;;;;;;;;5054007;28;20543;-48
2023/07/15 06:48:55;;;;;;;5.27;4.33;;;26.00;66.20;;;;;;5053369;28;20922;-49
2023/07/15 06:51:24;;;;;;;7.10;4.43;;;;;;;;;;5054366;28;20442;-49
2023/07/15 06:53:51;;;;;;;5.80;4.00;;;;;;;;;;5053926;28;20453;-46
2023/07/15 06:56:18;;;;;;;4.77;4.17;;;;;;;;;;5054005;28;20474;-47
2023/07/15 06:58:45;;;;;;;6.40;3.73;;;;;;;;;;5052784;28;20450;-47
2023/07/15 07:01:12;;;;;;;8.17;5.07;;;;;;;;;;5053686;28;20488;-48
2023/07/15 07:03:38;;;;;;;6.77;3.83;;;;;;;;;;5053643;28;20458;-46
2023/07/15 07:06:05;;;;;;;5.77;4.20;;;;;;;;;;5054331;28;20434;-47
2023/07/15 07:08:34;;;;;;;4.67;3.80;;;;;;;;;;5054316;28;20434;-47
2023/07/15 07:11:01;;;;;;;8.10;4.10;;;;;;;;;;5054614;28;20435;-48
2023/07/15 07:13:28;;;;;;;6.17;3.23;;;;;;;;;;5054016;28;20456;-49
2023/07/15 07:15:57;;;;;;;6.93;4.50;;;;;;;;;;5053277;28;20478;-48
2023/07/15 07:18:25;;;;;;;4.40;3.73;;;;;;;;;;5052552;28;20434;-48
2023/07/15 07:20:56;;;;;;;4.87;3.63;;;;;;;;;;5053365;28;20445;-48
2023/07/15 07:23:23;;;;;;;9.47;4.97;;;;;;;;;;5052873;28;20891;-48
2023/07/15 07:25:52;;;;;;;9.50;4.40;;;;;;;;;;5053026;28;20458;-48
2023/07/15 07:28:22;;;;;;;6.30;4.40;;;26.50;64.50;;;;;;5051249;28;20446;-48
2023/07/15 07:30:49;;;;;;;5.00;4.10;;;;;;;;;;5052509;28;20919;-48
2023/07/15 07:33:16;;;;;;;4.70;3.70;;;26.60;64.30;;;;;;5052524;28;20485;-49
2023/07/15 07:35:46;;;;;;;6.10;4.33;;;;;;;;;;5052411;28;20458;-47
2023/07/15 07:38:13;;;;;;;5.00;4.50;;;;;;;;;;5052177;28;20438;-48
2023/07/15 07:40:40;;;;;;;8.10;4.67;;;26.70;63.90;;;;;;5052369;28;20440;-48
2023/07/15 07:43:08;;;;;;;6.33;3.90;;;26.80;63.80;;;;;;5052163;28;20458;-47
2023/07/15 07:45:35;;;;;;;8.53;3.80;;;;;;;;;;5052207;28;20443;-48
2023/07/15 07:48:01;;;;;;;5.17;3.90;;;26.80;63.40;;;;;;5052437;28;20423;-48
2023/07/15 07:50:28;;;;;;;6.40;4.70;;;;;;;;;;5051937;28;20430;-49
2023/07/15 07:52:55;;;;;;;4.77;3.50;;;;;;;;;;5051895;28;20464;-48
2023/07/15 07:55:22;;;;;;;4.33;3.63;;;;;;;;;;5052147;28;20448;-48
2023/07/15 07:57:49;;;;;;;5.07;4.10;;;;;;;;;;5051930;28;20836;-47
2023/07/15 08:00:18;;;;;;;8.03;4.20;;;27.00;63.00;;;;;;5052020;28;20434;-48
2023/07/15 08:02:48;;;;;;;15.53;4.40;;;;;;;;;;5052221;28;20954;-47
2023/07/15 08:05:14;;;;;;;15.50;9.67;;;27.10;62.80;;;;;;5051950;28;20826;-48
2023/07/15 08:07:41;;;;;;;6.63;3.90;;;;;;;;;;5052009;28;20426;-47
2023/07/15 08:10:09;;;;;;;4.73;4.10;;;;;;;;;;5051945;28;20799;-48
2023/07/15 08:12:36;;;;;;;4.80;3.23;;;;;;;;;;5051748;28;20968;-49
2023/07/15 08:15:03;;;;;;;6.00;4.20;;;;;;;;;;5051927;28;20813;-47
2023/07/15 08:17:32;;;;;;;6.00;4.40;;;;;;;;;;5051585;28;20502;-47
2023/07/15 08:19:58;;;;;;;11.83;4.03;;;27.40;61.50;;;;;;5051380;28;20447;-49
2023/07/15 08:22:25;;;;;;;5.30;2.93;;;;;;;;;;5051698;28;20955;-48
2023/07/15 08:24:52;;;;;;;4.60;3.53;;;;;;;;;;5051495;28;20434;-48
2023/07/15 08:27:20;;;;;;;10.93;3.57;;;27.50;60.90;;;;;;5051873;28;20453;-48
2023/07/15 08:29:46;;;;;;;7.60;4.43;;;;;;;;;;5051128;28;20466;-47
2023/07/15 08:32:14;;;;;;;6.90;4.30;;;;;;;;;;5051173;28;20478;-48
2023/07/15 08:34:57;;;;;;;6.53;3.10;;;;;;;;;;5051743;28;20858;-47
2023/07/15 08:37:24;;;;;;;6.03;4.20;;;;;;;;;;5051279;28;20502;-48
2023/07/15 08:39:51;;;;;;;6.93;3.60;;;;;;;;;;5051202;28;20430;-48
2023/07/15 08:42:20;;;;;;;5.00;3.50;;;;;;;;;;5051294;28;20458;-48
2023/07/15 08:44:47;;;;;;;4.63;3.13;;;;;;;;;;5051295;28;20437;-47
2023/07/15 08:47:18;;;;;;;6.33;3.53;;;27.90;60.10;;;;;;5051191;28;20471;-48
2023/07/15 08:49:46;;;;;;;10.50;4.20;;;;;;;;;;5051127;28;20453;-47
2023/07/15 08:52:14;;;;;;;4.27;3.73;;;;;;;;;;5051116;28;20460;-47
2023/07/15 08:54:42;;;;;;;3.73;3.43;;;;;;;;;;5051323;28;20430;-48
2023/07/15 08:57:10;;;;;;;3.80;3.40;;;28.10;59.30;;;;;;5050704;28;20539;-48
2023/07/15 08:59:37;;;;;;;4.10;2.80;;;;;;;;;;5051177;28;20441;-48
2023/07/15 09:02:04;;;;;;;6.50;3.87;;;;;;;;;;5051545;28;20461;-48
2023/07/15 09:04:31;;;;;;;4.17;3.30;;;;;;;;;;5051250;28;20800;-48
2023/07/15 09:07:00;;;;;;;5.70;3.10;;;;;;;;;;5051379;28;20430;-48
2023/07/15 09:09:32;;;;;;;7.60;3.80;;;;;;;;;;5050960;28;20776;-48
2023/07/15 09:12:01;;;;;;;3.53;3.23;;;;;;;;;;5050677;28;20434;-48
2023/07/15 09:14:27;;;;;;;3.37;2.60;;;28.50;58.30;;;;;;5051013;28;20463;-49
2023/07/15 09:16:55;;;;;;;5.00;3.50;;;;;;;;;;5050849;28;20488;-48
2023/07/15 09:19:26;;;;;;;3.80;2.93;;;;;;;;;;5050436;28;20454;-48
2023/07/15 09:21:53;;;;;;;9.17;3.67;;;;;;;;;;5052962;28;20834;-48
2023/07/15 09:24:22;;;;;;;6.10;3.37;;;;;;;;;;5054524;28;20795;-48
2023/07/15 09:26:50;;;;;;;5.93;3.33;;;;;;;;;;5054928;28;20772;-48
2023/07/15 09:29:20;;;;;;;5.60;2.87;;;28.80;57.90;;;;;;5053201;28;20447;-48
2023/07/15 09:31:46;;;;;;;5.07;3.10;;;28.80;57.70;;;;;;5054416;28;20840;-49
2023/07/15 09:34:14;;;;;;;7.07;3.17;;;;;;;;;;5054873;28;20433;-48
2023/07/15 09:36:41;;;;;;;6.53;3.47;;;;;;;;;;5054696;28;20569;-47
2023/07/15 09:39:12;;;;;;;6.10;3.77;;;;;;;;;;5054105;28;21046;-48
2023/07/15 09:41:41;;;;;;;6.43;3.73;;;;;;;;;;5054448;28;20441;-48
2023/07/15 09:44:08;;;;;;;4.03;3.40;;;;;;;;;;5054732;28;20434;-48
2023/07/15 09:46:35;;;;;;;3.87;3.57;;;;;;;;;;5054583;28;20809;-48
2023/07/15 09:49:02;;;;;;;3.77;3.37;;;29.20;56.90;;;;;;5053935;28;20441;-48
2023/07/15 09:51:28;;;;;;;4.00;3.07;;;29.30;56.80;;;;;;5054515;28;20810;-48
2023/07/15 09:53:56;;;;;;;4.80;3.03;;;;;;;;;;5054162;28;20458;-47
2023/07/15 09:56:24;;;;;;;4.40;3.67;;;;;;;;;;5054697;28;20434;-49
2023/07/15 09:58:54;;;;;;;10.07;3.80;;;;;;;;;;5053903;28;20430;-48
2023/07/15 10:01:27;;;;;;;4.20;2.90;;;29.70;56.20;;;;;;5054114;28;20441;-48
2023/07/15 10:03:56;;;;;;;4.60;2.77;;;;;;;;;;5054024;28;20580;-48
2023/07/15 10:06:23;;;;;;;4.40;3.30;;;;;;;;;;5054150;28;20461;-48
2023/07/15 10:08:51;;;;;;;5.60;2.83;;;;;;;;;;5053558;28;20430;-48
2023/07/15 10:11:18;;;;;;;2.90;2.67;;;;;;;;;;5053644;28;20939;-48
2023/07/15 10:13:46;;;;;;;4.90;3.37;;;;;;;;;;5053785;28;21005;-48
2023/07/15 10:16:14;;;;;;;3.30;2.83;;;;;;;;;;5054043;28;20468;-48
2023/07/15 10:18:41;;;;;;;4.90;3.40;;;;;;;;;;5053167;28;20474;-49
2023/07/15 10:21:09;;;;;;;6.43;3.27;;;;;;;;;;5053778;28;20439;-49
2023/07/15 10:23:36;;;;;;;3.43;2.70;;;;;;;;;;5052061;28;20470;-48
2023/07/15 10:26:04;;;;;;;6.50;3.30;;;;;;;;;;5053636;28;20435;-48
2023/07/15 10:28:34;;;;;;;4.80;3.70;;;;;;;;;;5053041;28;20435;-48
2023/07/15 10:31:12;;;;;;;4.83;3.77;;;30.30;55.10;;;;;;5053789;28;20434;-49
2023/07/15 10:33:54;;;;;;;6.57;3.37;;;;;;;;;;5052351;28;20489;-49
2023/07/15 10:36:37;;;;;;;3.57;2.80;;;;;;;;;;5053239;28;20474;-48
2023/07/15 10:39:15;;;;;;;3.20;2.80;;;;;;;;;;5053267;28;20534;-48
2023/07/15 10:41:42;;;;;;;4.87;2.60;;;;;;;;;;5053719;28;20435;-48
2023/07/15 10:44:16;;;;;;;5.10;3.20;;;;;;;;;;5052758;28;20453;-47
2023/07/15 10:46:45;;;;;;;8.60;2.90;;;;;;;;;;5033499;28;20450;-48
2023/07/15 10:49:13;;;;;;;4.73;3.20;;;;;;;;;;5033110;28;20960;-49
2023/07/15 10:51:40;;;;;;;9.00;2.90;;;;;;;;;;5033559;28;20466;-48
2023/07/15 10:54:07;;;;;;;2.90;2.43;;;;;;;;;;5033761;28;20444;-48
2023/07/15 10:56:34;;;;;;;4.60;2.87;;;;;;;;;;5033121;28;20862;-48
2023/07/15 10:59:01;;;;;;;3.67;2.83;;;;;;;;;;5032733;28;20475;-48
2023/07/15 11:01:28;;;;;;;3.80;2.53;;;;;;;;;;5032976;28;20434;-47
2023/07/15 11:03:55;;;;;;;3.33;2.63;;;;;;;;;;5032949;28;20470;-48
2023/07/15 11:06:26;;;;;;;9.03;2.90;;;;;;;;;;5033119;28;20463;-49
2023/07/15 11:08:53;;;;;;;5.53;2.70;;;;;;;;;;5032530;28;20838;-49
2023/07/15 11:11:20;;;;;;;3.80;3.40;;;;;;;;;;5033084;28;20435;-48
2023/07/15 11:13:47;;;;;;;7.20;3.20;;;;;;;;;;5032981;28;20460;-47
2023/07/15 11:16:14;;;;;;;3.47;2.40;;;;;;;;;;5032900;28;20497;-47
2023/07/15 11:18:41;;;;;;;4.90;3.40;;;;;;;;;;5032321;28;20493;-48
2023/07/15 11:21:08;;;;;;;4.93;3.50;;;;;;;;;;5032655;28;20442;-48
2023/07/15 11:23:36;;;;;;;4.90;3.07;;;;;;;;;;5032558;28;20487;-48
2023/07/15 11:26:09;;;;;;;6.27;3.40;;;;;;;;;;5032497;28;20439;-48
2023/07/15 11:28:36;;;;;;;4.33;3.00;;;;;;;;;;5032196;28;20450;-49
2023/07/15 11:31:05;;;;;;;4.47;3.03;;;;;;;;;;5032538;28;20428;-48
2023/07/15 11:33:34;;;;;;;3.83;2.83;;;;;;;;;;5032300;28;20838;-49
2023/07/15 11:36:01;;;;;;;3.67;2.60;;;;;;;;;;5032399;28;20435;-49
2023/07/15 11:38:32;;;;;;;5.07;3.20;;;;;;;;;;5032072;28;20480;-49
2023/07/15 11:41:01;;;;;;;3.73;2.67;;;31.50;49.30;;;;;;5032277;28;20427;-48
2023/07/15 11:43:28;;;;;;;4.50;3.50;;;;;;;;;;5031990;28;20809;-48
2023/07/15 11:45:56;;;;;;;5.13;3.00;;;;;;;;;;5030778;28;20455;-48
2023/07/15 11:48:24;;;;;;;4.30;2.80;;;;;;;;;;5031772;28;20949;-48
2023/07/15 11:50:51;;;;;;;4.33;2.70;;;;;;;;;;5032300;28;20889;-48
2023/07/15 11:53:25;;;;;;;4.53;2.50;;;;;;;;;;5032253;28;20455;-48
2023/07/15 11:55:52;;;;;;;4.10;2.10;;;;;;;;;;5032103;28;20937;-48
2023/07/15 11:58:38;;;;;;;3.33;2.20;;;;;;;;;;5031987;28;20483;-49
2023/07/15 12:01:05;;;;;;;4.20;2.70;;;;;;;;;;5032039;28;20803;-48
2023/07/15 12:03:33;;;;;;;3.70;2.63;;;;;;;;;;5032262;28;20925;-48
2023/07/15 12:06:00;;;;;;;5.90;2.27;;;;;;;;;;5031765;28;20431;-48
2023/07/15 12:08:27;;;;;;;4.43;2.70;;;;;;;;;;5031873;28;20435;-49
2023/07/15 12:10:56;;;;;;;4.50;2.20;;;31.80;46.10;;;;;;5032122;28;20428;-49
2023/07/15 12:13:23;;;;;;;3.30;2.53;;;;;;;;;;5031717;28;20455;-48
2023/07/15 12:15:51;;;;;;;7.30;2.73;;;;;;;;;;5031578;28;20438;-49
2023/07/15 12:18:18;;;;;;;2.37;2.07;;;;;;;;;;5031360;28;20472;-48
2023/07/15 12:20:45;;;;;;;3.77;2.67;;;;;;;;;;5032060;28;20438;-48
2023/07/15 12:23:12;;;;;;;4.17;2.70;;;32.10;44.80;;;;;;5031979;28;20456;-49
2023/07/15 12:25:39;;;;;;;3.60;2.33;;;32.10;44.80;;;;;;5031622;28;20452;-49
2023/07/15 12:28:06;;;;;;;3.90;2.87;;;32.10;44.90;;;;;;5031776;28;20434;-47
2023/07/15 12:30:33;;;;;;;3.50;2.37;;;;;;;;;;5031714;28;20435;-47
2023/07/15 12:33:01;;;;;;;6.23;2.23;;;;;;;;;;5045201;22;21002;-51
2023/07/15 12:35:28;;;;;;;3.67;2.50;;;;;;;;;;5031731;28;20530;-49
2023/07/15 12:37:55;;;;;;;3.70;2.30;;;;;;;;;;5031842;28;20480;-48
2023/07/15 12:40:22;;;;;;;4.83;2.53;;;;;;;;;;5031589;28;20431;-49
2023/07/15 12:42:49;;;;;;;6.03;2.90;;;32.20;44.80;;;;;;5031822;28;20464;-49
2023/07/15 12:45:16;;;;;;;2.83;2.03;;;;;;;;;;5031725;28;20948;-50
2023/07/15 12:47:42;;;;;;;4.00;2.27;;;32.30;44.20;;;;;;5031944;28;20920;-50
2023/07/15 12:50:11;;;;;;;3.60;2.20;;;;;;;;;;5031488;28;20972;-50
2023/07/15 12:52:38;;;;;;;2.70;2.20;;;;;;;;;;5032296;28;20459;-50
2023/07/15 12:55:05;;;;;;;3.23;2.13;;;;;;;;;;5031532;28;20442;-50
2023/07/15 12:57:32;;;;;;;4.73;2.23;;;;;;;;;;5031228;28;20439;-50
2023/07/15 12:59:59;;;;;;;2.87;2.10;;;;;;;;;;5031149;28;20461;-50
2023/07/15 13:02:26;;;;;;;2.70;2.30;;;;;;;;;;5030151;28;20846;-50
2023/07/15 13:04:52;;;;;;;3.77;2.57;;;32.60;43.60;;;;;;5031908;28;20923;-49
2023/07/15 13:07:21;;;;;;;3.73;2.00;;;;;;;;;;5031884;28;20806;-50
2023/07/15 13:09:48;;;;;;;3.57;2.20;;;;;;;;;;5031376;28;20951;-50
2023/07/15 13:12:15;;;;;;;3.97;2.53;;;;;;;;;;5031377;28;20477;-49
2023/07/15 13:14:42;;;;;;;3.97;2.30;;;;;;;;;;5031334;28;20920;-49
2023/07/15 13:17:09;;;;;;;3.40;2.30;;;;;;;;;;5031712;28;20920;-50
2023/07/15 13:19:36;;;;;;;6.20;2.63;;;;;;;;;;5031091;28;20866;-50
2023/07/15 13:22:03;;;;;;;3.80;2.30;;;33.30;41.50;;;;;;5031515;28;20427;-50
2023/07/15 13:24:31;;;;;;;3.30;2.17;;;;;;;;;;5031464;28;20811;-50
2023/07/15 13:26:58;;;;;;;4.17;2.37;;;;;;;;;;5031462;28;20871;-49
2023/07/15 13:29:25;;;;;;;3.40;2.40;;;;;;;;;;5031159;28;20495;-50
2023/07/15 13:31:52;;;;;;;2.70;2.40;;;;;;;;;;5031677;28;20431;-50
2023/07/15 13:34:19;;;;;;;3.60;2.07;;;;;;;;;;5031514;28;20619;-52
2023/07/15 13:36:46;;;;;;;3.70;1.80;;;33.40;41.30;;;;;;5031514;28;20431;-51
2023/07/15 13:39:28;;;;;;;4.97;2.50;;;;;;;;;;5030955;28;20471;-50
2023/07/15 13:41:56;;;;;;;4.33;2.70;;;;;;;;;;5031119;28;20462;-50
2023/07/15 13:44:23;;;;;;;3.10;2.33;;;;;;;;;;5031245;28;20506;-49
2023/07/15 13:46:50;;;;;;;5.13;2.73;;;33.40;41.00;;;;;;5029996;28;20466;-49
2023/07/15 13:49:17;;;;;;;5.43;2.50;;;;;;;;;;5031054;28;20435;-50
2023/07/15 13:51:44;;;;;;;3.60;2.17;;;;;;;;;;5031297;28;20966;-50
2023/07/15 13:54:11;;;;;;;4.70;2.87;;;;;;;;;;5029995;28;20485;-50
2023/07/15 13:56:38;;;;;;;4.47;2.40;;;;;;;;;;5031231;28;20435;-50
2023/07/15 13:59:06;;;;;;;3.30;2.10;;;;;;;;;;5030553;28;20487;-49
2023/07/15 14:01:33;;;;;;;2.73;2.00;;;;;;;;;;5031138;28;20435;-49
2023/07/15 14:04:00;;;;;;;3.90;2.07;;;33.70;40.20;;;;;;5030822;28;20455;-50
2023/07/15 14:06:27;;;;;;;2.93;2.27;;;;;;;;;;5031108;28;20439;-48